Dobrodošli na spletni strani vremenske postaje Senovo. Vse informacije so informativnega značaja, saj vremenska postaja ni del državne mreže meteoroloških postaj. AKTUALNIH OBVESTIL NI.


Posebna pozornost v zvezi z vremenskimi dogajanji ni potrebna.    Posebna pozornost v zvezi z vremenskimi dogajanji ni potrebna.

Pogled proti Armezu več informacij Pogled proti Armezu


Bohor več informacij Bohor


Radar strel več informacij blitzortung!


Radar padavin več informacij rain snow radar


Obiščite še:

Template documentation
and downloads

And another site



Weather Underground, zgodovina - Tekstovno

Dnevni povzetek za December 10, 2017 Enote:  Angleško    Metrično   Obe
« Predhodni Dan
Naslednji Dan »
Dnevni Tedenski Mesečni Letni Po meri
  Višja: Nižja: Povprečje:
Temperatura: TemperatureC °F -7.2 °F -2.9 °F
Točka rosišča: DewpointC °F -8.6 °F -4.5 °F
Vlažnost: Humidity % 0 % 87 %
Hitrost vetra: WindSpeedKMH mph 0.0 mph 0.9 mph
Sunki vetra: WindSpeedGustKMH mph - -
Veter:- - SSW
Zračni tlak: PressurehPa in 0.0 in -
Padavine: 0.0 in    
Historical Graphs
 
 
Tabelarni podarki za December 10, 2017
Čas Temperatura Točka rosišča Zračni tlak Veter Hitrost vetra Sunki vetra Vlažnost Intenziteta padavin (urna)
TemperatureC °F DewpointC °F PressurehPa in Calm     Humidity % HourlyPrecipMM in
00:00 -6.5 °F -7.9 °F 1015.1 in SW 0.6 mph 3.2 mph 90 % 0.0 in
00:05 -6.5 °F -7.9 °F 1015.1 in SW 0.2 mph 2.1 mph 90 % 0.0 in
00:10 -6.6 °F -7.9 °F 1015.1 in Calm   3.5 mph 90 % 0.0 in
00:15 -6.7 °F -8.1 °F 1015.1 in SW 0.5 mph 3.5 mph 90 % 0.0 in
00:20 -6.7 °F -8.1 °F 1015.1 in SW 1.4 mph 4.0 mph 90 % 0.0 in
00:25 -6.8 °F -8.2 °F 1015.1 in SSW 2.1 mph 4.0 mph 90 % 0.0 in
00:30 -6.9 °F -8.3 °F 1015.1 in WNW 2.3 mph 4.0 mph 90 % 0.0 in
00:40 -7.0 °F -8.4 °F 1015.1 in Calm   3.2 mph 90 % 0.0 in
00:45 -7.1 °F -8.4 °F 1015.1 in SW 0.2 mph 3.2 mph 90 % 0.0 in
00:50 -7.1 °F -8.4 °F 1015.1 in SSW 0.2 mph 1.8 mph 90 % 0.0 in
00:55 -7.0 °F -8.4 °F 1015.1 in SW 1.3 mph 5.0 mph 90 % 0.0 in
01:00 -7.0 °F -8.4 °F 1015.1 in SW 2.9 mph 5.0 mph 90 % 0.0 in
01:05 -7.2 °F -8.6 °F 1015.1 in West 2.1 mph 4.7 mph 90 % 0.0 in
01:11 -7.2 °F -8.6 °F 1015.1 in NW 1.3 mph 2.6 mph 90 % 0.0 in
01:16 -7.1 °F -8.4 °F 1015.1 in West 1.8 mph 4.0 mph 90 % 0.0 in
01:21 -7.1 °F -8.4 °F 1015.1 in SW 1.6 mph 4.0 mph 90 % 0.0 in
01:31 -7.0 °F -8.2 °F 1015.1 in Calm     91 % 0.0 in
01:36 -6.9 °F -8.3 °F 1015.1 in SSW 0.2 mph 3.2 mph 90 % 0.0 in
01:41 -6.7 °F -8.1 °F 1015.1 in SW 0.6 mph 3.2 mph 90 % 0.0 in
01:46 -6.7 °F -8.1 °F 1015.1 in WNW 2.1 mph 4.3 mph 90 % 0.0 in
01:56 -6.5 °F -7.7 °F 1015.1 in NW 0.2 mph 2.1 mph 91 % 0.0 in
02:06 -6.4 °F -7.6 °F 1015.1 in NW 0.2 mph 3.2 mph 91 % 0.0 in
02:21 -6.1 °F -7.3 °F 1015.1 in SW 1.1 mph 4.0 mph 91 % 0.0 in
02:26 -6.0 °F -7.2 °F 1015.1 in WSW 0.8 mph 4.0 mph 91 % 0.0 in
02:31 -6.0 °F -7.2 °F 1015.1 in West 1.1 mph 4.0 mph 91 % 0.0 in
02:36 -6.0 °F -7.2 °F 1015.1 in West 0.8 mph 3.2 mph 91 % 0.0 in
02:46 -6.1 °F -7.3 °F 1015.1 in Calm     91 % 0.0 in
02:51 -6.2 °F -7.4 °F 1015.1 in Calm     91 % 0.0 in
02:56 -6.2 °F -7.4 °F 1015.1 in Calm     91 % 0.0 in
03:01 -6.2 °F -7.4 °F 1015.1 in Calm     91 % 0.0 in
03:06 -6.2 °F -7.4 °F 1015.1 in Calm     91 % 0.0 in
03:11 -6.4 °F -7.6 °F 1015.1 in Calm     91 % 0.0 in
03:16 -6.5 °F -7.7 °F 1015.1 in Calm     91 % 0.0 in
03:36 -6.8 °F -8.0 °F 1014.1 in Calm     91 % 0.0 in
03:41 -6.9 °F -8.1 °F 1014.1 in Calm     91 % 0.0 in
03:46 -6.9 °F -8.1 °F 1014.1 in Calm     91 % 0.0 in
03:51 -6.9 °F -8.1 °F 1014.1 in Calm     91 % 0.0 in
03:56 -7.0 °F -8.2 °F 1014.1 in Calm     91 % 0.0 in
04:04 -7.0 °F -8.2 °F 1014.1 in Calm     91 % 0.0 in
04:09 -7.0 °F -8.2 °F 1014.1 in Calm     91 % 0.0 in
04:15 -6.9 °F -8.1 °F 1014.1 in Calm     91 % 0.0 in
04:20 -6.8 °F -8.0 °F 1014.1 in Calm     91 % 0.0 in
04:21 -6.8 °F -8.0 °F 1014.1 in Calm     91 % 0.0 in
04:23 -6.8 °F -8.0 °F 1014.1 in Calm     91 % 0.0 in
04:25 -6.7 °F -7.9 °F 1014.1 in NW 0.2 mph 3.2 mph 91 % 0.0 in
04:30 -6.7 °F -7.9 °F 1014.1 in NW 1.1 mph 3.5 mph 91 % 0.0 in
04:35 -6.6 °F -7.8 °F 1014.1 in NW 1.0 mph 3.5 mph 91 % 0.0 in
04:40 -6.6 °F -7.8 °F 1014.1 in Calm     91 % 0.0 in
04:45 -6.5 °F -7.7 °F 1014.1 in NW 0.2 mph 2.1 mph 91 % 0.0 in
04:50 -6.5 °F -7.7 °F 1014.1 in NW 1.0 mph 4.0 mph 91 % 0.0 in
04:55 -6.4 °F -7.6 °F 1014.1 in NW 1.8 mph 4.3 mph 91 % 0.0 in
05:00 -6.3 °F -7.6 °F 1014.1 in NW 1.1 mph 4.3 mph 91 % 0.0 in
05:05 0.0 °F -7.5 °F 0.0 in NW 1.0 mph 2.3 mph 0 % 0.0 in
05:10 -6.2 °F -7.3 °F 1014.1 in ENE 0.5 mph 2.1 mph 92 % 0.0 in
05:15 -6.1 °F -7.2 °F 1014.1 in NNE 0.6 mph 2.6 mph 92 % 0.0 in
05:20 -6.1 °F -7.2 °F 1014.1 in NNW 1.4 mph 3.5 mph 92 % 0.0 in
05:25 -6.1 °F -7.2 °F 1013.1 in NNW 1.6 mph 3.5 mph 92 % 0.0 in
05:30 -6.2 °F -7.3 °F 1013.1 in North 1.3 mph 2.6 mph 92 % 0.0 in
05:35 -6.2 °F -7.3 °F 1013.1 in NE 1.9 mph 4.0 mph 92 % 0.0 in
05:40 -6.2 °F -7.3 °F 1013.1 in ENE 1.8 mph 4.0 mph 92 % 0.0 in
05:55 -6.3 °F -7.4 °F 1013.1 in NE 1.3 mph 4.0 mph 92 % 0.0 in
06:01 -6.3 °F -7.4 °F 1013.1 in NNE 1.6 mph 4.0 mph 92 % 0.0 in
06:06 -6.3 °F -7.4 °F 1013.1 in NE 1.4 mph 3.2 mph 92 % 0.0 in
06:11 -6.3 °F -7.4 °F 1013.1 in ENE 0.8 mph 3.2 mph 92 % 0.0 in
06:16 -6.3 °F -7.4 °F 1013.1 in Calm   1.4 mph 92 % 0.0 in
06:21 -6.2 °F -7.3 °F 1013.1 in East 0.5 mph 3.2 mph 92 % 0.0 in
06:26 -6.2 °F -7.3 °F 1013.1 in ENE 1.9 mph 3.5 mph 92 % 0.0 in
06:31 -6.2 °F -7.3 °F 1013.1 in ENE 2.4 mph 4.0 mph 92 % 0.0 in
06:36 -6.2 °F -7.3 °F 1013.1 in ENE 1.6 mph 4.0 mph 92 % 0.0 in
06:46 -6.2 °F -7.3 °F 1013.1 in WNW 0.2 mph 2.1 mph 92 % 0.0 in
06:51 -6.3 °F -7.4 °F 1013.1 in Calm     92 % 0.0 in
06:56 -6.3 °F -7.4 °F 1013.1 in Calm   1.8 mph 92 % 0.0 in
07:01 -6.2 °F -7.3 °F 1013.1 in ESE 0.6 mph 3.2 mph 92 % 0.0 in
07:11 -6.3 °F -7.4 °F 1012.1 in NNE 1.8 mph 3.2 mph 92 % 0.0 in
07:16 -6.3 °F -7.4 °F 1012.1 in NNW 1.6 mph 3.2 mph 92 % 0.0 in
07:21 -6.3 °F -7.4 °F 1012.1 in NNW 1.4 mph 2.6 mph 92 % 0.0 in
07:26 -6.3 °F -7.4 °F 1013.1 in NNW 0.6 mph 2.6 mph 92 % 0.0 in
07:31 -6.2 °F -7.3 °F 1013.1 in Calm     92 % 0.0 in
07:41 -6.2 °F -7.3 °F 1013.1 in Calm     92 % 0.0 in
07:51 -6.1 °F -7.2 °F 1013.1 in Calm     92 % 0.0 in
07:56 -6.1 °F -7.2 °F 1013.1 in Calm     92 % 0.0 in
08:01 -6.1 °F -7.2 °F 1013.1 in NNW 0.2 mph 2.1 mph 92 % 0.0 in
08:11 -6.1 °F -7.2 °F 1013.1 in Calm   1.8 mph 92 % 0.0 in
08:16 -6.1 °F -7.2 °F 1013.1 in Calm   1.8 mph 92 % 0.0 in
08:21 -6.0 °F -7.1 °F 1013.1 in NE 0.5 mph 2.6 mph 92 % 0.0 in
08:26 -6.0 °F -7.1 °F 1013.1 in NE 1.3 mph 2.6 mph 92 % 0.0 in
08:36 -5.9 °F -7.0 °F 1013.1 in NW 0.6 mph 2.6 mph 92 % 0.0 in
08:41 -5.9 °F -7.0 °F 1013.1 in NNW 0.3 mph 2.1 mph 92 % 0.0 in
08:46 -5.8 °F -6.9 °F 1013.1 in NW 0.5 mph 4.0 mph 92 % 0.0 in
08:51 -5.8 °F -6.9 °F 1013.1 in NW 1.3 mph 4.3 mph 92 % 0.0 in
08:56 -5.7 °F -6.8 °F 1013.1 in NW 2.3 mph 4.3 mph 92 % 0.0 in
09:01 -5.7 °F -6.8 °F 1013.1 in NNW 2.3 mph 4.0 mph 92 % 0.0 in
09:11 -5.6 °F -6.7 °F 1013.1 in Calm     92 % 0.0 in
09:21 -5.5 °F -6.6 °F 1013.1 in Calm     92 % 0.0 in
09:26 -5.4 °F -6.5 °F 1013.1 in Calm   1.4 mph 92 % 0.0 in
09:31 -5.4 °F -6.5 °F 1013.1 in NE 0.2 mph 3.5 mph 92 % 0.0 in
09:41 -5.2 °F -6.3 °F 1013.1 in WNW 0.3 mph 2.6 mph 92 % 0.0 in
09:46 -5.1 °F -6.2 °F 1013.1 in WSW 0.3 mph 2.6 mph 92 % 0.0 in
09:51 -5.1 °F -6.2 °F 1013.1 in NW 0.5 mph 3.2 mph 92 % 0.0 in
09:56 -5.0 °F -5.9 °F 1012.1 in NW 0.6 mph 3.2 mph 93 % 0.0 in
10:01 -4.8 °F -5.9 °F 1012.1 in NNE 0.5 mph 2.6 mph 92 % 0.0 in
10:11 -4.6 °F -5.6 °F 1012.1 in ENE 1.9 mph 2.6 mph 93 % 0.0 in
10:21 -4.5 °F -5.4 °F 1012.1 in ENE 1.9 mph 4.0 mph 93 % 0.0 in
10:26 -4.5 °F -5.4 °F 1012.1 in East 0.8 mph 3.2 mph 93 % 0.0 in
10:31 -4.5 °F -5.4 °F 1012.1 in ENE 1.0 mph 3.5 mph 93 % 0.0 in
10:36 -4.5 °F -5.4 °F 1012.1 in ENE 0.6 mph 3.5 mph 93 % 0.0 in
10:41 0.0 °F -5.5 °F 0.0 in North 0.2 mph   0 % 0.0 in
10:46 0.0 °F -5.5 °F 1011.1 in Calm   2.1 mph 0 % 0.0 in
10:51 0.0 °F -5.5 °F 0.0 in Calm   1.8 mph 0 % 0.0 in
10:56 -4.1 °F -5.1 °F 1012.1 in SW 0.3 mph 2.1 mph 93 % 0.0 in
11:01 -3.8 °F -4.8 °F 1012.1 in SW 0.2 mph 2.3 mph 93 % 0.0 in
11:06 -3.8 °F -4.8 °F 1012.1 in Calm     93 % 0.0 in
11:11 -3.8 °F -4.8 °F 1011.1 in Calm     93 % 0.0 in
11:16 -3.8 °F -4.8 °F 1011.1 in ESE 0.5 mph 2.1 mph 93 % 0.0 in
11:21 -3.8 °F -4.8 °F 1011.1 in East 1.3 mph 4.3 mph 93 % 0.0 in
11:31 -3.8 °F -4.8 °F 1009.0 in East 0.3 mph 1.8 mph 93 % 0.0 in
11:36 -3.1 °F -4.1 °F 1009.0 in Calm     93 % 0.0 in
11:41 -2.5 °F -3.5 °F 1009.0 in Calm     93 % 0.0 in
11:46 -2.3 °F -3.3 °F 1009.0 in Calm   2.6 mph 93 % 0.0 in
11:56 -2.1 °F -3.1 °F 1008.0 in SSE 0.5 mph 2.1 mph 93 % 0.0 in
12:01 -1.5 °F -2.5 °F 1008.0 in SSW 0.2 mph 2.1 mph 93 % 0.0 in
12:16 -1.4 °F -2.4 °F 1009.0 in SSW 1.3 mph 4.0 mph 93 % 0.0 in
12:21 -1.2 °F -2.2 °F 1009.0 in SW 0.3 mph 4.0 mph 93 % 0.0 in
12:26 -1.0 °F -2.0 °F 1009.0 in SSW 1.1 mph 4.7 mph 93 % 0.0 in
12:31 -0.8 °F -1.8 °F 1009.0 in South 1.9 mph 4.7 mph 93 % 0.0 in
12:36 -0.6 °F -1.6 °F 1009.0 in South 1.1 mph 4.7 mph 93 % 0.0 in
12:41 -0.6 °F -1.6 °F 1008.0 in SSE 1.4 mph 4.7 mph 93 % 0.0 in
12:46 -0.6 °F -1.6 °F 1008.0 in SSE 2.4 mph 4.7 mph 93 % 0.0 in
12:51 -0.4 °F -1.4 °F 1008.0 in South 2.1 mph 5.5 mph 93 % 0.0 in
13:01 -0.3 °F -1.3 °F 1008.0 in SSE 4.7 mph 6.4 mph 93 % 0.0 in
13:06 -0.3 °F -1.3 °F 1008.0 in South 4.0 mph 6.4 mph 93 % 0.0 in
13:11 -0.3 °F -1.3 °F 1008.0 in SSW 2.3 mph 5.0 mph 93 % 0.0 in
13:16 0.0 °F -1.0 °F 1008.0 in SSW 1.9 mph 4.7 mph 93 % 0.0 in
13:21 0.0 °F -1.0 °F 1008.0 in South 2.1 mph 4.7 mph 93 % 0.0 in
13:26 0.0 °F -1.0 °F 1007.0 in South 2.3 mph 4.3 mph 93 % 0.0 in
13:31 0.3 °F -0.7 °F 1007.0 in South 2.7 mph 4.7 mph 93 % 0.0 in
13:36 0.3 °F -0.7 °F 1007.0 in SSW 2.1 mph 4.7 mph 93 % 0.0 in
13:41 0.3 °F -0.7 °F 1006.0 in SW 1.0 mph 3.2 mph 93 % 0.0 in
13:46 0.3 °F -0.7 °F 1006.0 in South 0.5 mph 3.2 mph 93 % 0.0 in
13:51 0.3 °F -0.7 °F 1006.0 in South 0.3 mph 3.5 mph 93 % 0.0 in
13:56 0.3 °F -0.7 °F 1007.0 in South 0.5 mph 4.7 mph 93 % 0.0 in
14:01 0.0 °F -0.7 °F 1007.0 in Calm     0 % 0.0 in
14:11 0.3 °F -0.8 °F 1007.0 in SW 2.4 mph 4.3 mph 92 % 0.0 in
14:21 0.3 °F -0.8 °F 1005.0 in SW 1.0 mph 4.0 mph 92 % 0.0 in
14:26 0.3 °F -0.8 °F 1005.0 in SW 0.3 mph 2.6 mph 92 % 0.0 in
14:31 0.3 °F -0.8 °F 1005.0 in Calm     92 % 0.0 in
14:36 0.3 °F -0.8 °F 1005.0 in South 0.8 mph 5.0 mph 92 % 0.0 in
14:41 0.3 °F -0.8 °F 1005.0 in South 2.3 mph 5.0 mph 92 % 0.0 in
14:46 0.3 °F -0.8 °F 1005.0 in South 2.1 mph 4.3 mph 92 % 0.0 in
14:56 0.3 °F -0.8 °F 1005.0 in SSW 1.8 mph 2.6 mph 92 % 0.0 in
16:11 0.0 °F -1.6 °F 0.0 in Calm     0 % 0.0 in
16:16 0.4 °F -1.8 °F 1001.9 in SW 0.3 mph 1.4 mph 85 % 0.0 in
16:21 0.4 °F -1.8 °F 1001.9 in SW 0.8 mph 1.4 mph 85 % 0.0 in
16:26 0.3 °F -1.9 °F 1001.9 in SW 1.4 mph 1.4 mph 85 % 0.0 in
16:36 0.2 °F -2.0 °F 1001.9 in Calm     85 % 0.0 in
16:41 0.2 °F -1.9 °F 1002.9 in Calm     86 % 0.0 in
16:46 0.2 °F -1.9 °F 1002.9 in Calm     86 % 0.0 in
16:51 0.2 °F -1.9 °F 1002.9 in SSW 0.2 mph 5.0 mph 86 % 0.0 in
16:56 0.3 °F -1.8 °F 1002.9 in SSW 2.6 mph 5.0 mph 86 % 0.0 in
17:01 0.4 °F -1.7 °F 1002.9 in SSW 3.4 mph 5.0 mph 86 % 0.0 in
17:06 0.5 °F -1.4 °F 1002.9 in South 1.8 mph 4.0 mph 87 % 0.0 in
17:16 0.6 °F -1.3 °F 1002.9 in SE 0.8 mph 3.2 mph 87 % 0.0 in
17:21 0.8 °F -1.1 °F 1002.9 in SSW 2.7 mph 6.9 mph 87 % 0.0 in
17:27 1.0 °F -0.9 °F 1002.9 in SW 2.9 mph 6.9 mph 87 % 0.0 in
17:32 1.1 °F -0.8 °F 1002.9 in West 1.8 mph 5.0 mph 87 % 0.0 in
17:42 1.0 °F -0.9 °F 1002.9 in North 1.6 mph 3.2 mph 87 % 0.0 in
17:47 0.9 °F -0.9 °F 1002.9 in North 1.4 mph 2.6 mph 88 % 0.0 in
17:52 0.8 °F -0.9 °F 1002.9 in North 1.0 mph 2.6 mph 88 % 0.0 in
17:57 0.7 °F -1.1 °F 1001.9 in North 0.3 mph 2.6 mph 88 % 0.0 in
18:02 0.6 °F -1.2 °F 1001.9 in WNW 0.5 mph 1.4 mph 88 % 0.0 in
18:04 0.6 °F -1.2 °F 1001.9 in WNW 0.6 mph 1.4 mph 88 % 0.0 in
18:09 0.6 °F -1.2 °F 1001.9 in WNW 0.5 mph 1.4 mph 88 % 0.0 in
18:14 0.6 °F -1.2 °F 1001.9 in North 0.2 mph   88 % 0.0 in
18:19 0.5 °F -1.3 °F 1001.9 in Calm     88 % 0.0 in
18:24 0.5 °F -1.3 °F 1001.9 in Calm     88 % 0.0 in
18:29 0.5 °F -1.3 °F 1001.9 in Calm     88 % 0.0 in
18:34 0.4 °F -1.3 °F 1001.9 in Calm     88 % 0.0 in
18:39 0.4 °F -1.3 °F 1001.9 in Calm     88 % 0.0 in
18:49 0.3 °F -1.4 °F 1001.9 in Calm     88 % 0.0 in
18:54 0.3 °F -1.4 °F 1001.9 in Calm     88 % 0.0 in
18:59 0.3 °F -1.4 °F 1001.9 in Calm     88 % 0.0 in
19:09 0.3 °F -1.3 °F 1001.9 in Calm     89 % 0.0 in
19:14 0.3 °F -1.3 °F 1002.9 in NNW 0.2 mph 2.6 mph 89 % 0.0 in
19:19 0.3 °F -1.3 °F 1002.9 in NNW 0.3 mph 2.6 mph 89 % 0.0 in
19:24 0.3 °F -1.3 °F 1002.9 in NNW 0.2 mph 2.1 mph 89 % 0.0 in
19:29 0.2 °F -1.4 °F 1002.9 in Calm     89 % 0.0 in
19:34 0.2 °F -1.4 °F 1002.9 in NNW 0.6 mph 4.3 mph 89 % 0.0 in
19:39 0.2 °F -1.4 °F 1002.9 in NW 1.4 mph 4.3 mph 89 % 0.0 in
19:44 0.2 °F -1.4 °F 1002.9 in WNW 0.8 mph 4.0 mph 89 % 0.0 in
19:49 0.2 °F -1.4 °F 1002.9 in North 0.2 mph   89 % 0.0 in
19:54 0.2 °F -1.4 °F 1002.9 in SSW 0.5 mph 3.5 mph 89 % 0.0 in
19:59 0.9 °F -0.6 °F 1002.9 in SSW 1.3 mph 3.5 mph 90 % 0.0 in
20:04 0.9 °F -0.6 °F 1002.9 in SSW 1.1 mph 3.5 mph 90 % 0.0 in
20:10 0.9 °F -0.6 °F 1002.9 in West 2.1 mph 4.3 mph 90 % 0.0 in
21:20 2.1 °F -1.7 °F 1001.9 in SSW 3.1 mph 5.0 mph 76 % 0.0 in
21:30 1.9 °F -1.7 °F 1001.9 in SSW 3.4 mph 6.1 mph 77 % 0.0 in
21:35 1.7 °F -1.9 °F 1001.9 in SSW 2.9 mph 5.0 mph 77 % 0.0 in
21:40 1.7 °F -1.7 °F 1001.9 in SW 2.6 mph 5.5 mph 78 % 0.0 in
21:45 1.6 °F -1.8 °F 1000.9 in SSW 3.5 mph 7.6 mph 78 % 0.0 in
21:50 1.5 °F -1.9 °F 1000.9 in SSW 3.2 mph 7.6 mph 78 % 0.0 in
21:55 1.4 °F -1.8 °F 1000.9 in SW 1.1 mph 3.2 mph 79 % 0.0 in
22:00 1.3 °F -1.9 °F 1001.9 in SW 0.3 mph 2.1 mph 79 % 0.0 in
22:05 1.3 °F -1.9 °F 1001.9 in Calm     79 % 0.0 in
22:10 1.2 °F -1.9 °F 1001.9 in Calm     80 % 0.0 in
22:15 1.1 °F -1.9 °F 1000.9 in Calm     80 % 0.0 in
22:20 1.1 °F -1.9 °F 1000.9 in Calm     80 % 0.0 in
22:25 1.0 °F -1.9 °F 1000.9 in Calm     81 % 0.0 in
22:27 1.0 °F -1.9 °F 1000.9 in Calm     81 % 0.0 in
22:32 1.0 °F -1.9 °F 1000.9 in Calm     81 % 0.0 in
22:37 0.9 °F -1.8 °F 1000.9 in Calm     82 % 0.0 in
22:47 0.9 °F -1.7 °F 1000.9 in Calm     83 % 0.0 in
22:52 0.9 °F -1.7 °F 1000.9 in Calm     83 % 0.0 in
22:57 0.9 °F -1.5 °F 1000.9 in Calm     84 % 0.0 in
23:02 0.8 °F -1.6 °F 1000.9 in Calm     84 % 0.0 in
23:07 0.8 °F -1.6 °F 1000.9 in SW 0.3 mph 4.3 mph 84 % 0.0 in
23:12 0.8 °F -1.4 °F 1000.9 in SSW 1.4 mph 4.3 mph 85 % 0.0 in
23:22 0.9 °F -1.3 °F 1001.9 in SW 1.4 mph 4.0 mph 85 % 0.0 in
23:32 0.9 °F -1.2 °F 1000.9 in SW 1.8 mph 4.3 mph 86 % 0.0 in
23:37 0.9 °F -1.2 °F 1000.9 in SW 2.6 mph 4.0 mph 86 % 0.0 in
23:42 0.9 °F -1.2 °F 1000.9 in SW 1.4 mph 4.0 mph 86 % 0.0 in
23:47 0.9 °F -1.0 °F 1000.9 in SW 0.3 mph 1.8 mph 87 % 0.0 in
Vremenska postaja Senovo
Podatki zbrani iz Weather Underground - 2.5 mb

Script developed by  Jim McMurry - jmcmurry@mwt.net Adapted for the template by  Wim van der Kuil - Leuven-Template.eu

Vremenski podatki so objavljeni na:

European Weather Network

WeatherCloud

Weather Underground

AWEKAS

HAMweather, WeatherForYou, PWS Weather

MapView

Geostik

Slovenia weather network

Oprema, ki se uporablja:

Vremenski program
Cumulus

Vremenski server
Asus

Cumulus

Asus